FCYSMB OIBV-OMFJ
Flight info
| Callsign | FCYSMB |
|---|---|
| Flight time | 1h 34m |
| Altitude | 6000 |
| Route | 2646N05422E 2631N05447E 2637N05456E 2658N05537E 2705N05559E DCT OIKB |
| Aircraft | C414/L-SBDFGRY/S |
Departure
| Time | 2026-04-29 18:43 |
|---|---|
| Airport | Lavan Airport (OIBV) |
Arrival
| Time | 2026-04-29 20:18 |
|---|---|
| Airport | Fujairah International Airport (OMFJ) |
| Time | Latitude | Longitude | Altitude | Speed | Heading |
|---|---|---|---|---|---|
| 2026-04-29 18:15 | 26.80903 | 53.35150 | 76 ft | 0 kts | 197° |
| 2026-04-29 18:33 | 26.80902 | 53.35150 | 76 ft | 0 kts | 196° |
| 2026-04-29 18:33 | 26.80893 | 53.35155 | 79 ft | 3 kts | 116° |
| 2026-04-29 18:33 | 26.80907 | 53.35165 | 65 ft | 7 kts | 337° |
| 2026-04-29 18:33 | 26.80949 | 53.35151 | 74 ft | 5 kts | 346° |
| 2026-04-29 18:34 | 26.80975 | 53.35152 | 76 ft | 3 kts | 19° |
| 2026-04-29 18:34 | 26.80998 | 53.35161 | 76 ft | 5 kts | 18° |
| 2026-04-29 18:34 | 26.81051 | 53.35182 | 76 ft | 8 kts | 22° |
| 2026-04-29 18:34 | 26.81095 | 53.35203 | 77 ft | 6 kts | 24° |
| 2026-04-29 18:35 | 26.81128 | 53.35241 | 77 ft | 8 kts | 79° |
| 2026-04-29 18:35 | 26.81116 | 53.35296 | 77 ft | 7 kts | 109° |
| 2026-04-29 18:35 | 26.81097 | 53.35356 | 76 ft | 9 kts | 109° |
| 2026-04-29 18:35 | 26.81078 | 53.35420 | 75 ft | 8 kts | 108° |
| 2026-04-29 18:36 | 26.81057 | 53.35481 | 68 ft | 9 kts | 114° |
| 2026-04-29 18:36 | 26.81028 | 53.35552 | 72 ft | 9 kts | 111° |
| 2026-04-29 18:36 | 26.81003 | 53.35624 | 72 ft | 11 kts | 111° |
| 2026-04-29 18:36 | 26.80968 | 53.35720 | 72 ft | 16 kts | 113° |
| 2026-04-29 18:37 | 26.80922 | 53.35848 | 74 ft | 18 kts | 111° |
| 2026-04-29 18:37 | 26.80881 | 53.35972 | 74 ft | 16 kts | 111° |
| 2026-04-29 18:37 | 26.80844 | 53.36084 | 72 ft | 15 kts | 109° |
| 2026-04-29 18:37 | 26.80810 | 53.36190 | 72 ft | 14 kts | 109° |
| 2026-04-29 18:38 | 26.80779 | 53.36288 | 75 ft | 14 kts | 112° |
| 2026-04-29 18:38 | 26.80738 | 53.36392 | 74 ft | 15 kts | 114° |
| 2026-04-29 18:38 | 26.80695 | 53.36499 | 71 ft | 12 kts | 128° |
| 2026-04-29 18:38 | 26.80655 | 53.36532 | 72 ft | 0 kts | 149° |
| 2026-04-29 18:41 | 26.80700 | 53.36541 | 72 ft | 7 kts | 291° |
| 2026-04-29 18:41 | 26.80713 | 53.36503 | 69 ft | 3 kts | 290° |
| 2026-04-29 18:42 | 26.80715 | 53.36498 | 70 ft | 0 kts | 290° |
| 2026-04-29 18:42 | 26.80743 | 53.36413 | 74 ft | 34 kts | 290° |
| 2026-04-29 18:42 | 26.80880 | 53.36012 | 73 ft | 74 kts | 291° |
| 2026-04-29 18:42 | 26.81104 | 53.35385 | 74 ft | 97 kts | 290° |
| 2026-04-29 18:43 | 26.81331 | 53.34652 | 113 ft | 102 kts | 290° |
| 2026-04-29 18:43 | 26.81631 | 53.33927 | 282 ft | 103 kts | 297° |
| 2026-04-29 18:43 | 26.82199 | 53.33392 | 500 ft | 117 kts | 346° |
| 2026-04-29 18:43 | 26.82955 | 53.33738 | 833 ft | 131 kts | 48° |
| 2026-04-29 18:44 | 26.83157 | 53.34761 | 1063 ft | 149 kts | 101° |
| 2026-04-29 18:44 | 26.82657 | 53.35847 | 1117 ft | 165 kts | 120° |
| 2026-04-29 18:44 | 26.82052 | 53.36975 | 1181 ft | 177 kts | 122° |
| 2026-04-29 18:44 | 26.81468 | 53.38275 | 1089 ft | 196 kts | 109° |
| 2026-04-29 18:45 | 26.81113 | 53.39734 | 1182 ft | 193 kts | 100° |
| 2026-04-29 18:45 | 26.80867 | 53.41201 | 1319 ft | 191 kts | 97° |
| 2026-04-29 18:45 | 26.80700 | 53.42655 | 1462 ft | 187 kts | 91° |
| 2026-04-29 18:45 | 26.80671 | 53.44105 | 1551 ft | 186 kts | 87° |
| 2026-04-29 18:46 | 26.80640 | 53.45554 | 1660 ft | 187 kts | 88° |
| 2026-04-29 18:46 | 26.80590 | 53.47007 | 1776 ft | 187 kts | 90° |
| 2026-04-29 18:46 | 26.80518 | 53.48465 | 1871 ft | 188 kts | 90° |
| 2026-04-29 18:46 | 26.80452 | 53.49926 | 1966 ft | 188 kts | 90° |
| 2026-04-29 18:47 | 26.80396 | 53.51384 | 2035 ft | 188 kts | 90° |
| 2026-04-29 18:47 | 26.80343 | 53.52852 | 2142 ft | 189 kts | 90° |
| 2026-04-29 18:47 | 26.80272 | 53.54321 | 2216 ft | 189 kts | 89° |
| 2026-04-29 18:47 | 26.80212 | 53.55791 | 2312 ft | 189 kts | 89° |
| 2026-04-29 18:48 | 26.80157 | 53.57259 | 2472 ft | 189 kts | 89° |
| 2026-04-29 18:48 | 26.80095 | 53.58729 | 2611 ft | 190 kts | 89° |
| 2026-04-29 18:48 | 26.80032 | 53.60205 | 2621 ft | 191 kts | 89° |
| 2026-04-29 18:48 | 26.79975 | 53.61688 | 2727 ft | 191 kts | 89° |
| 2026-04-29 18:49 | 26.79931 | 53.62672 | 2820 ft | 191 kts | 89° |
| 2026-04-29 18:49 | 26.79864 | 53.64162 | 2899 ft | 192 kts | 89° |
| 2026-04-29 18:49 | 26.79811 | 53.65653 | 2995 ft | 192 kts | 89° |
| 2026-04-29 18:49 | 26.79742 | 53.67144 | 3099 ft | 192 kts | 89° |
| 2026-04-29 18:50 | 26.79680 | 53.68645 | 3209 ft | 194 kts | 89° |
| 2026-04-29 18:50 | 26.79622 | 53.70150 | 3289 ft | 194 kts | 90° |
| 2026-04-29 18:50 | 26.79560 | 53.71649 | 3462 ft | 192 kts | 90° |
| 2026-04-29 18:50 | 26.79492 | 53.73137 | 3608 ft | 191 kts | 89° |
| 2026-04-29 18:51 | 26.79427 | 53.74618 | 3736 ft | 191 kts | 89° |
| 2026-04-29 18:51 | 26.79371 | 53.76108 | 3849 ft | 192 kts | 90° |
| 2026-04-29 18:51 | 26.79309 | 53.77603 | 3967 ft | 193 kts | 90° |
| 2026-04-29 18:51 | 26.79240 | 53.79102 | 4094 ft | 193 kts | 91° |
| 2026-04-29 18:52 | 26.79169 | 53.80608 | 4203 ft | 194 kts | 90° |
| 2026-04-29 18:52 | 26.79117 | 53.82118 | 4337 ft | 194 kts | 91° |
| 2026-04-29 18:52 | 26.79046 | 53.83629 | 4463 ft | 195 kts | 91° |
| 2026-04-29 18:52 | 26.78975 | 53.85144 | 4589 ft | 195 kts | 90° |
| 2026-04-29 18:53 | 26.78916 | 53.86685 | 4602 ft | 201 kts | 90° |
| 2026-04-29 18:53 | 26.78849 | 53.88264 | 4604 ft | 205 kts | 91° |
| 2026-04-29 18:53 | 26.78774 | 53.89870 | 4599 ft | 208 kts | 91° |
| 2026-04-29 18:53 | 26.78703 | 53.91494 | 4598 ft | 210 kts | 92° |
| 2026-04-29 18:54 | 26.78635 | 53.93130 | 4598 ft | 211 kts | 91° |
| 2026-04-29 18:54 | 26.78562 | 53.94769 | 4588 ft | 210 kts | 91° |
| 2026-04-29 18:54 | 26.78495 | 53.96401 | 4615 ft | 211 kts | 91° |
| 2026-04-29 18:54 | 26.78414 | 53.98041 | 4608 ft | 211 kts | 91° |
| 2026-04-29 18:55 | 26.78342 | 53.99673 | 4598 ft | 209 kts | 90° |
| 2026-04-29 18:55 | 26.78271 | 54.01291 | 4572 ft | 207 kts | 90° |
| 2026-04-29 18:55 | 26.78209 | 54.02900 | 4579 ft | 207 kts | 90° |
| 2026-04-29 18:55 | 26.78131 | 54.04516 | 4590 ft | 209 kts | 90° |
| 2026-04-29 18:56 | 26.78072 | 54.06149 | 4576 ft | 210 kts | 90° |
| 2026-04-29 18:56 | 26.77982 | 54.07773 | 4579 ft | 209 kts | 91° |
| 2026-04-29 18:56 | 26.77908 | 54.09398 | 4605 ft | 209 kts | 90° |
| 2026-04-29 18:56 | 26.77848 | 54.11035 | 4607 ft | 211 kts | 91° |
| 2026-04-29 18:57 | 26.77769 | 54.12678 | 4596 ft | 211 kts | 91° |
| 2026-04-29 18:57 | 26.77685 | 54.14315 | 4595 ft | 211 kts | 90° |
| 2026-04-29 18:57 | 26.77619 | 54.15953 | 4608 ft | 210 kts | 90° |
| 2026-04-29 18:57 | 26.77558 | 54.17589 | 4603 ft | 209 kts | 91° |
| 2026-04-29 18:58 | 26.77471 | 54.19191 | 4620 ft | 210 kts | 91° |
| 2026-04-29 18:58 | 26.77387 | 54.20828 | 4612 ft | 212 kts | 90° |
| 2026-04-29 18:58 | 26.77326 | 54.22470 | 4598 ft | 210 kts | 91° |
| 2026-04-29 18:58 | 26.77253 | 54.24098 | 4604 ft | 210 kts | 91° |
| 2026-04-29 18:59 | 26.77171 | 54.25732 | 4603 ft | 211 kts | 91° |
| 2026-04-29 18:59 | 26.77102 | 54.27377 | 4608 ft | 213 kts | 91° |
| 2026-04-29 18:59 | 26.77026 | 54.29029 | 4600 ft | 212 kts | 92° |
| 2026-04-29 18:59 | 26.76937 | 54.30680 | 4600 ft | 213 kts | 91° |
| 2026-04-29 19:00 | 26.76865 | 54.32331 | 4602 ft | 213 kts | 90° |
| 2026-04-29 19:00 | 26.76795 | 54.33982 | 4600 ft | 212 kts | 91° |
| 2026-04-29 19:00 | 26.76577 | 54.35613 | 4601 ft | 214 kts | 105° |
| 2026-04-29 19:00 | 26.76055 | 54.37167 | 4596 ft | 213 kts | 114° |
| 2026-04-29 19:01 | 26.75411 | 54.38661 | 4599 ft | 213 kts | 116° |
| 2026-04-29 19:01 | 26.74676 | 54.40098 | 4602 ft | 213 kts | 123° |
| 2026-04-29 19:01 | 26.73815 | 54.41450 | 4599 ft | 214 kts | 126° |
| 2026-04-29 19:01 | 26.72962 | 54.42818 | 4600 ft | 215 kts | 123° |
| 2026-04-29 19:02 | 26.72145 | 54.44219 | 4599 ft | 215 kts | 122° |
| 2026-04-29 19:02 | 26.71595 | 54.45164 | 4590 ft | 214 kts | 123° |
| 2026-04-29 19:02 | 26.70493 | 54.46994 | 4593 ft | 214 kts | 124° |
| 2026-04-29 19:02 | 26.69654 | 54.48375 | 4595 ft | 215 kts | 123° |
| 2026-04-29 19:03 | 26.68830 | 54.49762 | 4592 ft | 214 kts | 123° |
| 2026-04-29 19:03 | 26.68011 | 54.51151 | 4590 ft | 214 kts | 124° |
| 2026-04-29 19:03 | 26.67179 | 54.52531 | 4583 ft | 214 kts | 124° |
| 2026-04-29 19:03 | 26.66343 | 54.53910 | 4590 ft | 215 kts | 124° |
| 2026-04-29 19:04 | 26.65512 | 54.55295 | 4587 ft | 214 kts | 124° |
| 2026-04-29 19:04 | 26.64681 | 54.56681 | 4589 ft | 216 kts | 123° |
| 2026-04-29 19:04 | 26.63846 | 54.58084 | 4591 ft | 217 kts | 123° |
| 2026-04-29 19:04 | 26.63006 | 54.59486 | 4584 ft | 217 kts | 124° |
| 2026-04-29 19:05 | 26.62161 | 54.60887 | 4588 ft | 218 kts | 124° |
| 2026-04-29 19:05 | 26.61313 | 54.62296 | 4587 ft | 219 kts | 123° |
| 2026-04-29 19:05 | 26.60467 | 54.63705 | 4590 ft | 218 kts | 123° |
| 2026-04-29 19:05 | 26.59624 | 54.65110 | 4583 ft | 218 kts | 123° |
| 2026-04-29 19:06 | 26.58780 | 54.66517 | 4586 ft | 218 kts | 123° |
| 2026-04-29 19:06 | 26.57937 | 54.67926 | 4590 ft | 218 kts | 124° |
| 2026-04-29 19:06 | 26.56254 | 54.70714 | 4573 ft | 215 kts | 124° |
| 2026-04-29 19:07 | 26.55420 | 54.72102 | 4583 ft | 216 kts | 124° |
| 2026-04-29 19:07 | 26.54866 | 54.73025 | 4579 ft | 216 kts | 124° |
| 2026-04-29 19:07 | 26.53742 | 54.74885 | 4578 ft | 215 kts | 124° |
| 2026-04-29 19:07 | 26.52910 | 54.76267 | 4581 ft | 215 kts | 124° |
| 2026-04-29 19:08 | 26.52388 | 54.77795 | 4574 ft | 212 kts | 88° |
| 2026-04-29 19:08 | 26.52734 | 54.79356 | 4573 ft | 207 kts | 64° |
| 2026-04-29 19:08 | 26.53361 | 54.80791 | 4578 ft | 205 kts | 58° |
| 2026-04-29 19:08 | 26.54122 | 54.82127 | 4574 ft | 202 kts | 49° |
| 2026-04-29 19:09 | 26.55000 | 54.83351 | 4579 ft | 203 kts | 46° |
| 2026-04-29 19:09 | 26.55878 | 54.84597 | 4580 ft | 205 kts | 49° |
| 2026-04-29 19:09 | 26.56712 | 54.85890 | 4573 ft | 205 kts | 50° |
| 2026-04-29 19:09 | 26.57552 | 54.87177 | 4578 ft | 205 kts | 49° |
| 2026-04-29 19:10 | 26.58411 | 54.88449 | 4571 ft | 205 kts | 49° |
| 2026-04-29 19:10 | 26.59268 | 54.89720 | 4568 ft | 204 kts | 49° |
| 2026-04-29 19:10 | 26.60116 | 54.90998 | 4572 ft | 205 kts | 49° |
| 2026-04-29 19:10 | 26.60957 | 54.92285 | 4569 ft | 205 kts | 50° |
| 2026-04-29 19:11 | 26.61784 | 54.93581 | 4576 ft | 204 kts | 51° |
| 2026-04-29 19:11 | 26.62541 | 54.94932 | 4570 ft | 206 kts | 57° |
| 2026-04-29 19:11 | 26.63221 | 54.96350 | 4572 ft | 207 kts | 58° |
| 2026-04-29 19:11 | 26.63916 | 54.97734 | 4577 ft | 207 kts | 56° |
| 2026-04-29 19:12 | 26.64650 | 54.99118 | 4573 ft | 207 kts | 56° |
| 2026-04-29 19:12 | 26.65375 | 55.00504 | 4571 ft | 207 kts | 56° |
| 2026-04-29 19:12 | 26.66085 | 55.01916 | 4578 ft | 209 kts | 56° |
| 2026-04-29 19:12 | 26.66571 | 55.02866 | 4566 ft | 208 kts | 54° |
| 2026-04-29 19:13 | 26.67539 | 55.04706 | 4565 ft | 207 kts | 56° |
| 2026-04-29 19:13 | 26.68252 | 55.06098 | 4561 ft | 206 kts | 56° |
| 2026-04-29 19:13 | 26.68959 | 55.07497 | 4562 ft | 207 kts | 55° |
| 2026-04-29 19:13 | 26.69683 | 55.08894 | 4564 ft | 208 kts | 55° |
| 2026-04-29 19:14 | 26.70412 | 55.10297 | 4566 ft | 210 kts | 55° |
| 2026-04-29 19:14 | 26.71143 | 55.11704 | 4569 ft | 209 kts | 57° |
| 2026-04-29 19:14 | 26.71852 | 55.13117 | 4567 ft | 208 kts | 57° |
| 2026-04-29 19:14 | 26.72573 | 55.14522 | 4566 ft | 208 kts | 56° |
| 2026-04-29 19:15 | 26.73290 | 55.15913 | 4569 ft | 205 kts | 56° |
| 2026-04-29 19:15 | 26.74004 | 55.17286 | 4560 ft | 204 kts | 57° |
| 2026-04-29 19:15 | 26.74701 | 55.18667 | 4560 ft | 204 kts | 56° |
| 2026-04-29 19:15 | 26.75413 | 55.20050 | 4559 ft | 206 kts | 56° |
| 2026-04-29 19:16 | 26.76126 | 55.21436 | 4557 ft | 205 kts | 56° |
| 2026-04-29 19:16 | 26.76838 | 55.22823 | 4564 ft | 206 kts | 56° |
| 2026-04-29 19:16 | 26.77550 | 55.24219 | 4561 ft | 207 kts | 56° |
| 2026-04-29 19:16 | 26.78268 | 55.25614 | 4562 ft | 207 kts | 57° |
| 2026-04-29 19:17 | 26.78996 | 55.27011 | 4561 ft | 207 kts | 58° |
| 2026-04-29 19:17 | 26.79705 | 55.28417 | 4557 ft | 208 kts | 58° |
| 2026-04-29 19:17 | 26.80414 | 55.29816 | 4558 ft | 205 kts | 57° |
| 2026-04-29 19:17 | 26.81126 | 55.31200 | 4555 ft | 205 kts | 57° |
| 2026-04-29 19:18 | 26.81839 | 55.32586 | 4554 ft | 205 kts | 57° |
| 2026-04-29 19:18 | 26.82309 | 55.33499 | 4556 ft | 204 kts | 57° |
| 2026-04-29 19:18 | 26.83245 | 55.35351 | 4550 ft | 204 kts | 56° |
| 2026-04-29 19:18 | 26.83955 | 55.36726 | 4553 ft | 204 kts | 56° |
| 2026-04-29 19:19 | 26.84661 | 55.38107 | 4551 ft | 205 kts | 57° |
| 2026-04-29 19:19 | 26.85368 | 55.39491 | 4554 ft | 205 kts | 56° |
| 2026-04-29 19:19 | 26.86076 | 55.40883 | 4550 ft | 206 kts | 56° |
| 2026-04-29 19:19 | 26.86790 | 55.42268 | 4555 ft | 206 kts | 57° |
| 2026-04-29 19:20 | 26.87499 | 55.43663 | 4560 ft | 206 kts | 57° |
| 2026-04-29 19:20 | 26.88204 | 55.45056 | 4560 ft | 206 kts | 57° |
| 2026-04-29 19:20 | 26.88917 | 55.46444 | 4551 ft | 206 kts | 57° |
| 2026-04-29 19:20 | 26.89625 | 55.47832 | 4543 ft | 205 kts | 57° |
| 2026-04-29 19:21 | 26.90330 | 55.49216 | 4545 ft | 204 kts | 57° |
| 2026-04-29 19:21 | 26.91034 | 55.50599 | 4548 ft | 205 kts | 57° |
| 2026-04-29 19:21 | 26.91742 | 55.51987 | 4545 ft | 205 kts | 57° |
| 2026-04-29 19:21 | 26.92435 | 55.53360 | 4545 ft | 205 kts | 56° |
| 2026-04-29 19:22 | 26.93147 | 55.54759 | 4550 ft | 203 kts | 55° |
| 2026-04-29 19:22 | 26.93853 | 55.56126 | 4554 ft | 203 kts | 56° |
| 2026-04-29 19:22 | 26.94545 | 55.57484 | 4551 ft | 204 kts | 56° |
| 2026-04-29 19:22 | 26.95240 | 55.58870 | 4547 ft | 205 kts | 56° |
| 2026-04-29 19:23 | 26.95940 | 55.60263 | 4545 ft | 205 kts | 57° |
| 2026-04-29 19:23 | 26.96595 | 55.61689 | 4545 ft | 207 kts | 59° |
| 2026-04-29 19:23 | 26.97193 | 55.63154 | 4551 ft | 207 kts | 65° |
| 2026-04-29 19:23 | 26.97656 | 55.64690 | 4548 ft | 208 kts | 69° |
| 2026-04-29 19:24 | 26.98102 | 55.66237 | 4550 ft | 209 kts | 67° |
| 2026-04-29 19:24 | 26.98604 | 55.67762 | 4557 ft | 208 kts | 65° |
| 2026-04-29 19:24 | 26.99113 | 55.69285 | 4539 ft | 209 kts | 66° |
| 2026-04-29 19:24 | 26.99594 | 55.70827 | 4535 ft | 209 kts | 67° |
| 2026-04-29 19:25 | 27.00076 | 55.72363 | 4535 ft | 209 kts | 67° |
| 2026-04-29 19:25 | 27.00569 | 55.73886 | 4534 ft | 207 kts | 67° |
| 2026-04-29 19:25 | 27.01052 | 55.75406 | 4542 ft | 207 kts | 66° |
| 2026-04-29 19:25 | 27.01534 | 55.76935 | 4543 ft | 209 kts | 66° |
| 2026-04-29 19:26 | 27.02028 | 55.78462 | 4553 ft | 208 kts | 66° |
| 2026-04-29 19:26 | 27.02519 | 55.79996 | 4536 ft | 209 kts | 67° |
| 2026-04-29 19:26 | 27.02999 | 55.81533 | 4537 ft | 209 kts | 67° |
| 2026-04-29 19:26 | 27.03488 | 55.83068 | 4536 ft | 209 kts | 66° |
| 2026-04-29 19:27 | 27.03977 | 55.84601 | 4536 ft | 209 kts | 66° |
| 2026-04-29 19:27 | 27.04465 | 55.86136 | 4535 ft | 208 kts | 66° |
| 2026-04-29 19:27 | 27.04950 | 55.87665 | 4536 ft | 208 kts | 66° |
| 2026-04-29 19:27 | 27.05437 | 55.89197 | 4528 ft | 208 kts | 66° |
| 2026-04-29 19:28 | 27.05923 | 55.90726 | 4527 ft | 208 kts | 66° |
| 2026-04-29 19:28 | 27.06404 | 55.92256 | 4527 ft | 208 kts | 66° |
| 2026-04-29 19:28 | 27.06891 | 55.93783 | 4529 ft | 208 kts | 66° |
| 2026-04-29 19:28 | 27.07378 | 55.95313 | 4529 ft | 208 kts | 66° |
| 2026-04-29 19:29 | 27.07853 | 55.96853 | 4528 ft | 209 kts | 68° |
| 2026-04-29 19:29 | 27.08329 | 55.98394 | 4527 ft | 208 kts | 65° |
| 2026-04-29 19:29 | 27.08863 | 55.99901 | 4529 ft | 208 kts | 64° |
| 2026-04-29 19:29 | 27.09403 | 56.01415 | 4527 ft | 209 kts | 64° |
| 2026-04-29 19:30 | 27.09929 | 56.02942 | 4526 ft | 210 kts | 65° |
| 2026-04-29 19:30 | 27.10449 | 56.04472 | 4529 ft | 210 kts | 65° |
| 2026-04-29 19:30 | 27.10969 | 56.06006 | 4523 ft | 211 kts | 65° |
| 2026-04-29 19:30 | 27.11501 | 56.07539 | 4526 ft | 211 kts | 64° |
| 2026-04-29 19:31 | 27.12037 | 56.09074 | 4527 ft | 212 kts | 65° |
| 2026-04-29 19:31 | 27.12605 | 56.10657 | 4146 ft | 227 kts | 65° |
| 2026-04-29 19:31 | 27.13176 | 56.12327 | 3634 ft | 232 kts | 67° |
| 2026-04-29 19:31 | 27.13713 | 56.14027 | 3143 ft | 228 kts | 69° |
| 2026-04-29 19:32 | 27.14226 | 56.15685 | 2721 ft | 221 kts | 69° |
| 2026-04-29 19:32 | 27.14730 | 56.17271 | 2308 ft | 217 kts | 69° |
| 2026-04-29 19:32 | 27.15201 | 56.18858 | 1973 ft | 211 kts | 71° |
| 2026-04-29 19:32 | 27.15544 | 56.20441 | 1703 ft | 208 kts | 78° |
| 2026-04-29 19:33 | 27.15822 | 56.22049 | 1394 ft | 207 kts | 76° |
| 2026-04-29 19:33 | 27.16162 | 56.23581 | 1266 ft | 203 kts | 75° |
| 2026-04-29 19:33 | 27.16497 | 56.25143 | 1115 ft | 207 kts | 77° |
| 2026-04-29 19:33 | 27.16793 | 56.26700 | 1065 ft | 200 kts | 78° |
| 2026-04-29 19:34 | 27.17088 | 56.28195 | 1126 ft | 193 kts | 77° |
| 2026-04-29 19:34 | 27.17363 | 56.29663 | 1194 ft | 193 kts | 78° |
| 2026-04-29 19:34 | 27.17623 | 56.31160 | 1152 ft | 199 kts | 81° |
| 2026-04-29 19:34 | 27.17856 | 56.32682 | 1029 ft | 197 kts | 82° |
| 2026-04-29 19:35 | 27.18124 | 56.34160 | 978 ft | 187 kts | 78° |
| 2026-04-29 19:35 | 27.18551 | 56.35430 | 781 ft | 160 kts | 56° |
| 2026-04-29 19:35 | 27.19309 | 56.36182 | 578 ft | 135 kts | 27° |
| 2026-04-29 19:35 | 27.19855 | 56.36490 | 427 ft | 132 kts | 25° |
| 2026-04-29 19:36 | 27.20713 | 56.36966 | 31 ft | 137 kts | 27° |
| 2026-04-29 19:36 | 27.21504 | 56.37380 | 273 ft | 119 kts | 10° |
| 2026-04-29 19:36 | 27.22308 | 56.37358 | 662 ft | 117 kts | 346° |
| 2026-04-29 19:36 | 27.23039 | 56.37024 | 876 ft | 118 kts | 293° |
| 2026-04-29 19:37 | 27.22717 | 56.36220 | 815 ft | 144 kts | 199° |
| 2026-04-29 19:37 | 27.22041 | 56.36402 | 880 ft | 158 kts | 147° |
| 2026-04-29 19:37 | 27.20841 | 56.37340 | 1119 ft | 167 kts | 168° |
| 2026-04-29 19:37 | 27.19657 | 56.37451 | 1190 ft | 174 kts | 179° |
| 2026-04-29 19:38 | 27.18551 | 56.38050 | 1412 ft | 174 kts | 154° |
| 2026-04-29 19:38 | 27.17475 | 56.38629 | 1571 ft | 181 kts | 168° |
| 2026-04-29 19:38 | 27.16175 | 56.38769 | 1492 ft | 191 kts | 185° |
| 2026-04-29 19:38 | 27.14879 | 56.38656 | 1801 ft | 175 kts | 193° |
| 2026-04-29 19:39 | 27.13743 | 56.38414 | 2221 ft | 164 kts | 198° |
| 2026-04-29 19:39 | 27.12564 | 56.38482 | 2325 ft | 178 kts | 173° |
| 2026-04-29 19:39 | 27.11351 | 56.38751 | 2439 ft | 178 kts | 174° |
| 2026-04-29 19:39 | 27.10127 | 56.39004 | 2567 ft | 179 kts | 174° |
| 2026-04-29 19:40 | 27.08896 | 56.39254 | 2713 ft | 181 kts | 175° |
| 2026-04-29 19:40 | 27.07649 | 56.39393 | 2865 ft | 181 kts | 182° |
| 2026-04-29 19:40 | 27.06385 | 56.39429 | 3002 ft | 183 kts | 184° |
| 2026-04-29 19:40 | 27.05111 | 56.39440 | 3167 ft | 184 kts | 185° |
| 2026-04-29 19:41 | 27.03823 | 56.39433 | 3318 ft | 186 kts | 185° |
| 2026-04-29 19:41 | 27.02524 | 56.39422 | 3471 ft | 188 kts | 186° |
| 2026-04-29 19:41 | 27.01211 | 56.39413 | 3617 ft | 190 kts | 186° |
| 2026-04-29 19:41 | 26.99884 | 56.39406 | 3765 ft | 191 kts | 186° |
| 2026-04-29 19:42 | 26.98548 | 56.39401 | 3907 ft | 193 kts | 185° |
| 2026-04-29 19:42 | 26.97658 | 56.39397 | 3997 ft | 194 kts | 185° |
| 2026-04-29 19:42 | 26.95849 | 56.39394 | 4188 ft | 195 kts | 185° |
| 2026-04-29 19:42 | 26.94490 | 56.39395 | 4347 ft | 196 kts | 185° |
| 2026-04-29 19:43 | 26.93122 | 56.39398 | 4507 ft | 197 kts | 185° |
| 2026-04-29 19:43 | 26.91752 | 56.39391 | 4671 ft | 197 kts | 185° |
| 2026-04-29 19:43 | 26.90373 | 56.39384 | 4806 ft | 199 kts | 185° |
| 2026-04-29 19:43 | 26.88979 | 56.39384 | 4935 ft | 201 kts | 185° |
| 2026-04-29 19:44 | 26.87574 | 56.39385 | 5089 ft | 203 kts | 185° |
| 2026-04-29 19:44 | 26.86162 | 56.39389 | 5213 ft | 204 kts | 185° |
| 2026-04-29 19:44 | 26.84743 | 56.39399 | 5351 ft | 204 kts | 185° |
| 2026-04-29 19:44 | 26.83324 | 56.39412 | 5485 ft | 204 kts | 185° |
| 2026-04-29 19:45 | 26.81902 | 56.39416 | 5600 ft | 205 kts | 185° |
| 2026-04-29 19:45 | 26.80477 | 56.39418 | 5711 ft | 206 kts | 185° |
| 2026-04-29 19:45 | 26.79043 | 56.39418 | 5723 ft | 211 kts | 185° |
| 2026-04-29 19:45 | 26.77558 | 56.39416 | 5723 ft | 215 kts | 185° |
| 2026-04-29 19:46 | 26.76049 | 56.39410 | 5723 ft | 218 kts | 185° |
| 2026-04-29 19:46 | 26.74523 | 56.39402 | 5729 ft | 220 kts | 185° |
| 2026-04-29 19:46 | 26.72986 | 56.39400 | 5730 ft | 221 kts | 185° |
| 2026-04-29 19:46 | 26.71446 | 56.39402 | 5728 ft | 222 kts | 185° |
| 2026-04-29 19:47 | 26.69909 | 56.39401 | 5728 ft | 221 kts | 185° |
| 2026-04-29 19:47 | 26.68367 | 56.39401 | 5728 ft | 221 kts | 185° |
| 2026-04-29 19:47 | 26.66826 | 56.39402 | 5727 ft | 222 kts | 185° |
| 2026-04-29 19:47 | 26.65284 | 56.39398 | 5726 ft | 222 kts | 185° |
| 2026-04-29 19:48 | 26.63742 | 56.39390 | 5727 ft | 222 kts | 185° |
| 2026-04-29 19:48 | 26.62697 | 56.39384 | 5728 ft | 222 kts | 185° |
| 2026-04-29 19:48 | 26.60649 | 56.39378 | 5732 ft | 223 kts | 185° |
| 2026-04-29 19:48 | 26.59101 | 56.39378 | 5733 ft | 222 kts | 185° |
| 2026-04-29 19:49 | 26.57554 | 56.39379 | 5731 ft | 222 kts | 185° |
| 2026-04-29 19:49 | 26.56009 | 56.39380 | 5732 ft | 222 kts | 185° |
| 2026-04-29 19:49 | 26.54473 | 56.39381 | 5732 ft | 220 kts | 185° |
| 2026-04-29 19:49 | 26.52943 | 56.39385 | 5732 ft | 219 kts | 185° |
| 2026-04-29 19:50 | 26.51420 | 56.39389 | 5731 ft | 219 kts | 185° |
| 2026-04-29 19:50 | 26.49904 | 56.39395 | 5731 ft | 218 kts | 185° |
| 2026-04-29 19:50 | 26.48391 | 56.39401 | 5729 ft | 217 kts | 185° |
| 2026-04-29 19:50 | 26.46880 | 56.39402 | 5729 ft | 217 kts | 185° |
| 2026-04-29 19:51 | 26.45372 | 56.39403 | 5729 ft | 217 kts | 185° |
| 2026-04-29 19:51 | 26.43865 | 56.39405 | 5738 ft | 217 kts | 185° |
| 2026-04-29 19:51 | 26.42354 | 56.39405 | 5736 ft | 217 kts | 185° |
| 2026-04-29 19:51 | 26.40840 | 56.39405 | 5732 ft | 217 kts | 185° |
| 2026-04-29 19:52 | 26.39330 | 56.39410 | 5732 ft | 217 kts | 185° |
| 2026-04-29 19:52 | 26.37821 | 56.39417 | 5732 ft | 217 kts | 185° |
| 2026-04-29 19:52 | 26.36314 | 56.39419 | 5746 ft | 216 kts | 186° |
| 2026-04-29 19:52 | 26.34802 | 56.39425 | 5746 ft | 218 kts | 185° |
| 2026-04-29 19:53 | 26.33284 | 56.39438 | 5747 ft | 218 kts | 185° |
| 2026-04-29 19:53 | 26.31767 | 56.39435 | 5744 ft | 218 kts | 185° |
| 2026-04-29 19:53 | 26.30246 | 56.39435 | 5746 ft | 219 kts | 185° |
| 2026-04-29 19:53 | 26.28725 | 56.39441 | 5738 ft | 217 kts | 185° |
| 2026-04-29 19:54 | 26.25754 | 56.39424 | 5717 ft | 213 kts | 186° |
| 2026-04-29 19:54 | 26.24266 | 56.39431 | 5740 ft | 214 kts | 186° |
| 2026-04-29 19:54 | 26.22784 | 56.39438 | 5744 ft | 217 kts | 185° |
| 2026-04-29 19:55 | 26.21272 | 56.39455 | 5736 ft | 217 kts | 185° |
| 2026-04-29 19:55 | 26.19760 | 56.39470 | 5744 ft | 218 kts | 186° |
| 2026-04-29 19:55 | 26.18247 | 56.39484 | 5749 ft | 217 kts | 185° |
| 2026-04-29 19:55 | 26.16739 | 56.39492 | 5748 ft | 217 kts | 185° |
| 2026-04-29 19:56 | 26.15235 | 56.39501 | 5748 ft | 216 kts | 185° |
| 2026-04-29 19:56 | 26.13730 | 56.39514 | 5754 ft | 216 kts | 185° |
| 2026-04-29 19:56 | 26.12224 | 56.39527 | 5754 ft | 216 kts | 185° |
| 2026-04-29 19:56 | 26.10697 | 56.39541 | 5759 ft | 217 kts | 185° |
| 2026-04-29 19:57 | 26.09203 | 56.39545 | 5754 ft | 218 kts | 184° |
| 2026-04-29 19:57 | 26.08178 | 56.39548 | 5771 ft | 219 kts | 185° |
| 2026-04-29 19:57 | 26.06158 | 56.39531 | 5767 ft | 220 kts | 186° |
| 2026-04-29 19:57 | 26.04630 | 56.39541 | 5754 ft | 219 kts | 186° |
| 2026-04-29 19:58 | 26.03116 | 56.39571 | 5765 ft | 217 kts | 184° |
| 2026-04-29 19:58 | 26.01603 | 56.39570 | 5768 ft | 218 kts | 185° |
| 2026-04-29 19:58 | 26.00077 | 56.39565 | 5777 ft | 220 kts | 185° |
| 2026-04-29 19:58 | 25.98543 | 56.39557 | 5763 ft | 220 kts | 185° |
| 2026-04-29 19:59 | 25.97018 | 56.39580 | 5801 ft | 221 kts | 185° |
| 2026-04-29 19:59 | 25.95479 | 56.39591 | 5804 ft | 221 kts | 185° |
| 2026-04-29 19:59 | 25.93945 | 56.39582 | 5805 ft | 220 kts | 185° |
| 2026-04-29 19:59 | 25.92420 | 56.39559 | 5793 ft | 219 kts | 185° |
| 2026-04-29 20:00 | 25.90897 | 56.39542 | 5787 ft | 219 kts | 185° |
| 2026-04-29 20:00 | 25.89375 | 56.39525 | 5786 ft | 219 kts | 185° |
| 2026-04-29 20:00 | 25.87862 | 56.39504 | 5763 ft | 217 kts | 185° |
| 2026-04-29 20:00 | 25.86346 | 56.39508 | 5761 ft | 219 kts | 185° |
| 2026-04-29 20:01 | 25.84829 | 56.39507 | 5757 ft | 218 kts | 185° |
| 2026-04-29 20:01 | 25.83315 | 56.39499 | 5754 ft | 217 kts | 185° |
| 2026-04-29 20:01 | 25.81804 | 56.39487 | 5755 ft | 217 kts | 185° |
| 2026-04-29 20:01 | 25.80291 | 56.39480 | 5408 ft | 224 kts | 184° |
| 2026-04-29 20:02 | 25.78706 | 56.39456 | 5025 ft | 225 kts | 187° |
| 2026-04-29 20:02 | 25.77172 | 56.39325 | 4761 ft | 221 kts | 188° |
| 2026-04-29 20:02 | 25.75623 | 56.39323 | 4439 ft | 223 kts | 179° |
| 2026-04-29 20:02 | 25.74599 | 56.39448 | 4228 ft | 223 kts | 176° |
| 2026-04-29 20:03 | 25.72580 | 56.39809 | 3831 ft | 222 kts | 172° |
| 2026-04-29 20:03 | 25.71056 | 56.40162 | 3440 ft | 224 kts | 171° |
| 2026-04-29 20:03 | 25.69562 | 56.40521 | 3231 ft | 217 kts | 171° |
| 2026-04-29 20:03 | 25.68080 | 56.40890 | 2858 ft | 219 kts | 170° |
| 2026-04-29 20:04 | 25.66605 | 56.41286 | 2534 ft | 218 kts | 168° |
| 2026-04-29 20:04 | 25.65149 | 56.41745 | 2201 ft | 217 kts | 166° |
| 2026-04-29 20:04 | 25.63700 | 56.42145 | 1983 ft | 212 kts | 170° |
| 2026-04-29 20:04 | 25.62310 | 56.42592 | 1927 ft | 203 kts | 163° |
| 2026-04-29 20:05 | 25.61018 | 56.43118 | 1922 ft | 194 kts | 162° |
| 2026-04-29 20:05 | 25.59752 | 56.43554 | 1923 ft | 188 kts | 167° |
| 2026-04-29 20:05 | 25.58496 | 56.43908 | 1923 ft | 185 kts | 169° |
| 2026-04-29 20:05 | 25.57232 | 56.44238 | 1932 ft | 189 kts | 169° |
| 2026-04-29 20:06 | 25.55931 | 56.44567 | 1937 ft | 194 kts | 169° |
| 2026-04-29 20:06 | 25.54610 | 56.44904 | 1937 ft | 196 kts | 169° |
| 2026-04-29 20:06 | 25.53274 | 56.45236 | 1944 ft | 198 kts | 170° |
| 2026-04-29 20:06 | 25.51905 | 56.45471 | 1943 ft | 201 kts | 177° |
| 2026-04-29 20:07 | 25.50503 | 56.45608 | 1942 ft | 204 kts | 178° |
| 2026-04-29 20:07 | 25.49083 | 56.45691 | 1941 ft | 206 kts | 179° |
| 2026-04-29 20:07 | 25.47645 | 56.45759 | 1940 ft | 208 kts | 180° |
| 2026-04-29 20:07 | 25.46201 | 56.45829 | 1941 ft | 208 kts | 180° |
| 2026-04-29 20:08 | 25.44756 | 56.45895 | 1940 ft | 208 kts | 180° |
| 2026-04-29 20:08 | 25.43799 | 56.45952 | 1939 ft | 209 kts | 180° |
| 2026-04-29 20:08 | 25.41851 | 56.46073 | 1939 ft | 210 kts | 180° |
| 2026-04-29 20:08 | 25.40396 | 56.46165 | 1935 ft | 209 kts | 180° |
| 2026-04-29 20:09 | 25.38940 | 56.46250 | 1943 ft | 210 kts | 180° |
| 2026-04-29 20:09 | 25.37480 | 56.46341 | 1940 ft | 209 kts | 180° |
| 2026-04-29 20:09 | 25.36037 | 56.46452 | 1935 ft | 207 kts | 180° |
| 2026-04-29 20:09 | 25.34621 | 56.46567 | 1933 ft | 206 kts | 180° |
| 2026-04-29 20:10 | 25.33175 | 56.46694 | 1935 ft | 205 kts | 180° |
| 2026-04-29 20:10 | 25.31761 | 56.46805 | 1946 ft | 208 kts | 180° |
| 2026-04-29 20:10 | 25.30313 | 56.46899 | 1938 ft | 209 kts | 180° |
| 2026-04-29 20:10 | 25.28859 | 56.46980 | 1937 ft | 210 kts | 180° |
| 2026-04-29 20:11 | 25.27404 | 56.47042 | 1935 ft | 209 kts | 180° |
| 2026-04-29 20:11 | 25.25951 | 56.47089 | 1935 ft | 209 kts | 180° |
| 2026-04-29 20:11 | 25.24499 | 56.47135 | 1936 ft | 209 kts | 180° |
| 2026-04-29 20:11 | 25.23029 | 56.47194 | 1716 ft | 216 kts | 179° |
| 2026-04-29 20:12 | 25.21552 | 56.47285 | 1635 ft | 210 kts | 179° |
| 2026-04-29 20:12 | 25.20116 | 56.47284 | 1595 ft | 204 kts | 186° |
| 2026-04-29 20:12 | 25.18723 | 56.47032 | 1525 ft | 200 kts | 195° |
| 2026-04-29 20:12 | 25.17388 | 56.46683 | 1528 ft | 194 kts | 197° |
| 2026-04-29 20:13 | 25.16105 | 56.46338 | 1528 ft | 185 kts | 194° |
| 2026-04-29 20:13 | 25.15262 | 56.46315 | 1518 ft | 181 kts | 180° |
| 2026-04-29 20:13 | 25.13600 | 56.46406 | 1522 ft | 177 kts | 183° |
| 2026-04-29 20:13 | 25.12363 | 56.46331 | 1531 ft | 179 kts | 187° |
| 2026-04-29 20:14 | 25.11117 | 56.46214 | 1529 ft | 180 kts | 188° |
| 2026-04-29 20:14 | 25.09893 | 56.46092 | 1471 ft | 172 kts | 188° |
| 2026-04-29 20:14 | 25.08741 | 56.45748 | 1250 ft | 175 kts | 218° |
| 2026-04-29 20:14 | 25.08008 | 56.44757 | 1182 ft | 165 kts | 244° |
| 2026-04-29 20:15 | 25.07645 | 56.43586 | 1117 ft | 154 kts | 261° |
| 2026-04-29 20:15 | 25.07508 | 56.42474 | 1230 ft | 140 kts | 277° |
| 2026-04-29 20:15 | 25.07709 | 56.41428 | 1359 ft | 143 kts | 293° |
| 2026-04-29 20:15 | 25.08051 | 56.40380 | 1360 ft | 150 kts | 296° |
| 2026-04-29 20:16 | 25.08431 | 56.39277 | 1235 ft | 157 kts | 296° |
| 2026-04-29 20:16 | 25.08823 | 56.38129 | 956 ft | 164 kts | 297° |
| 2026-04-29 20:16 | 25.09283 | 56.37048 | 712 ft | 149 kts | 295° |
| 2026-04-29 20:16 | 25.09738 | 56.36069 | 607 ft | 141 kts | 303° |
| 2026-04-29 20:17 | 25.10200 | 56.35097 | 479 ft | 147 kts | 296° |
| 2026-04-29 20:17 | 25.10567 | 56.34043 | 200 ft | 142 kts | 300° |
| 2026-04-29 20:17 | 25.10943 | 56.33118 | 85 ft | 118 kts | 301° |
| 2026-04-29 20:17 | 25.11237 | 56.32406 | 95 ft | 95 kts | 284° |
| 2026-04-29 20:18 | 25.11478 | 56.31737 | 110 ft | 87 kts | 296° |
| 2026-04-29 20:18 | 25.11693 | 56.31457 | 121 ft | 20 kts | 301° |
| 2026-04-29 20:18 | 25.11737 | 56.31388 | 121 ft | 7 kts | 326° |
| 2026-04-29 20:18 | 25.11757 | 56.31411 | 123 ft | 5 kts | 52° |
| 2026-04-29 20:19 | 25.11774 | 56.31435 | 122 ft | 3 kts | 52° |
| 2026-04-29 20:19 | 25.11800 | 56.31420 | 123 ft | 3 kts | 258° |
| 2026-04-29 20:19 | 25.11799 | 56.31418 | 123 ft | 0 kts | 246° |
| 2026-04-29 20:21 | 25.11785 | 56.31412 | 122 ft | 9 kts | 160° |
| 2026-04-29 20:21 | 25.11723 | 56.31560 | 118 ft | 25 kts | 106° |
| 2026-04-29 20:21 | 25.11671 | 56.31725 | 113 ft | 21 kts | 107° |
| 2026-04-29 20:22 | 25.11628 | 56.31861 | 109 ft | 17 kts | 110° |
| 2026-04-29 20:22 | 25.11589 | 56.31980 | 106 ft | 15 kts | 106° |
| 2026-04-29 20:22 | 25.11558 | 56.32087 | 103 ft | 14 kts | 111° |
| 2026-04-29 20:22 | 25.11526 | 56.32184 | 101 ft | 13 kts | 112° |
| 2026-04-29 20:23 | 25.11498 | 56.32272 | 98 ft | 13 kts | 108° |
| 2026-04-29 20:23 | 25.11464 | 56.32385 | 95 ft | 16 kts | 107° |
| 2026-04-29 20:23 | 25.11429 | 56.32487 | 93 ft | 12 kts | 107° |
| 2026-04-29 20:23 | 25.11406 | 56.32568 | 90 ft | 10 kts | 109° |
| 2026-04-29 20:24 | 25.11389 | 56.32617 | 88 ft | 10 kts | 110° |
| 2026-04-29 20:24 | 25.11364 | 56.32698 | 86 ft | 13 kts | 109° |
| 2026-04-29 20:24 | 25.11334 | 56.32795 | 83 ft | 13 kts | 107° |
| 2026-04-29 20:24 | 25.11309 | 56.32886 | 80 ft | 12 kts | 104° |
| 2026-04-29 20:25 | 25.11291 | 56.32966 | 75 ft | 10 kts | 106° |
| 2026-04-29 20:25 | 25.11273 | 56.33036 | 74 ft | 5 kts | 83° |
| 2026-04-29 20:25 | 25.11277 | 56.33047 | 76 ft | 0 kts | 61° |
| 2026-04-29 20:26 | 25.11292 | 56.33068 | 75 ft | 7 kts | 46° |
| 2026-04-29 20:26 | 25.11315 | 56.33108 | 75 ft | 7 kts | 43° |
| 2026-04-29 20:26 | 25.11385 | 56.33171 | 74 ft | 9 kts | 86° |
| 2026-04-29 20:26 | 25.11365 | 56.33190 | 73 ft | 0 kts | 200° |